createdAt,value
2022-10-25T00:02:19.978Z,8.02
2022-10-25T00:04:47.968Z,7.55
2022-10-25T00:07:15.546Z,8.15
2022-10-25T00:09:42.850Z,7.63
2022-10-25T00:12:10.382Z,6.75
2022-10-25T00:14:37.657Z,7.80
2022-10-25T00:17:05.002Z,8.10
2022-10-25T00:19:32.312Z,7.60
2022-10-25T00:21:59.593Z,8.40
2022-10-25T00:24:26.943Z,8.25
2022-10-25T00:26:54.362Z,7.75
2022-10-25T00:29:21.602Z,6.95
2022-10-25T00:31:50.272Z,6.70
2022-10-25T00:34:17.678Z,7.07
2022-10-25T00:36:44.944Z,6.90
2022-10-25T00:39:12.246Z,7.05
2022-10-25T00:41:39.641Z,6.47
2022-10-25T00:44:40.863Z,7.90
2022-10-25T00:47:25.385Z,7.40
2022-10-25T00:50:17.437Z,7.88
2022-10-25T00:52:47.641Z,7.25
2022-10-25T00:55:18.813Z,7.20
2022-10-25T00:58:12.971Z,7.43
2022-10-25T01:00:40.728Z,7.57
2022-10-25T01:03:08.395Z,6.60
2022-10-25T01:05:36.464Z,7.63
2022-10-25T01:08:05.486Z,6.63
2022-10-25T01:10:33.379Z,6.78
2022-10-25T01:13:02.526Z,7.60
2022-10-25T01:15:41.202Z,6.88
2022-10-25T01:18:13.349Z,6.53
2022-10-25T01:21:08.676Z,7.05
2022-10-25T01:24:03.843Z,6.90
2022-10-25T01:26:52.555Z,6.97
2022-10-25T01:29:28.768Z,6.93
2022-10-25T01:32:09.696Z,6.78
2022-10-25T01:34:45.587Z,6.75
2022-10-25T01:37:24.293Z,7.25
2022-10-25T01:40:07.217Z,6.90
2022-10-25T01:42:58.692Z,6.20
2022-10-25T01:45:32.035Z,8.15
2022-10-25T01:48:17.776Z,6.82
2022-10-25T01:50:47.917Z,6.45
2022-10-25T01:53:16.578Z,7.00
2022-10-25T01:55:56.706Z,6.93
2022-10-25T01:58:44.244Z,7.13
2022-10-25T02:01:38.871Z,6.28
2022-10-25T02:04:14.497Z,6.97
2022-10-25T02:09:33.517Z,6.55
2022-10-25T02:12:02.504Z,7.07
2022-10-25T02:14:36.351Z,6.97
2022-10-25T02:17:13.218Z,5.90
2022-10-25T02:19:46.887Z,7.22
2022-10-25T02:22:16.160Z,6.57
2022-10-25T02:24:46.052Z,6.55
2022-10-25T02:27:14.767Z,6.85
2022-10-25T02:29:43.207Z,7.93
2022-10-25T02:32:10.576Z,7.25
2022-10-25T02:34:39.562Z,7.35
2022-10-25T02:37:07.043Z,6.95
2022-10-25T02:39:35.628Z,7.07
2022-10-25T02:42:03.074Z,7.13
2022-10-25T02:44:30.555Z,7.15
2022-10-25T02:46:57.993Z,7.40
2022-10-25T02:49:25.369Z,7.32
2022-10-25T02:51:53.787Z,7.07
2022-10-25T02:54:21.168Z,6.53
2022-10-25T02:56:52.709Z,7.85
2022-10-25T02:59:21.492Z,6.70
2022-10-25T03:01:49.250Z,6.97
2022-10-25T03:04:16.705Z,6.78
2022-10-25T03:06:43.990Z,7.43
2022-10-25T03:09:11.306Z,8.15
2022-10-25T03:11:38.632Z,8.68
2022-10-25T03:14:06.004Z,8.38
2022-10-25T03:16:33.239Z,8.98
2022-10-25T03:19:00.596Z,10.80
2022-10-25T03:21:27.950Z,11.07
2022-10-25T03:23:55.444Z,11.00
2022-10-25T03:26:22.956Z,10.80
2022-10-25T03:28:50.445Z,10.15
2022-10-25T03:31:18.737Z,11.38
2022-10-25T03:33:46.414Z,12.00
2022-10-25T03:36:14.383Z,10.80
2022-10-25T03:38:41.800Z,10.35
2022-10-25T03:41:09.194Z,11.00
2022-10-25T03:43:37.134Z,10.68
2022-10-25T03:46:04.414Z,9.98
2022-10-25T03:48:31.879Z,10.60
2022-10-25T03:50:59.197Z,10.27
2022-10-25T03:53:26.592Z,10.60
2022-10-25T03:55:53.830Z,11.55
2022-10-25T03:58:21.235Z,10.63
2022-10-25T04:00:48.517Z,11.02
2022-10-25T04:03:16.047Z,10.40
2022-10-25T04:05:43.380Z,9.80
2022-10-25T04:08:10.654Z,8.82
2022-10-25T04:10:37.940Z,9.52
2022-10-25T04:13:05.461Z,7.88
2022-10-25T04:15:33.008Z,7.65
2022-10-25T04:18:00.304Z,8.75
2022-10-25T04:20:29.803Z,8.63
2022-10-25T04:22:58.216Z,8.30
2022-10-25T04:25:27.141Z,7.95
2022-10-25T04:27:54.934Z,8.40
2022-10-25T04:30:22.422Z,7.75
2022-10-25T04:32:50.539Z,8.27
2022-10-25T04:35:18.219Z,8.82
2022-10-25T04:37:45.588Z,8.27
2022-10-25T04:40:13.116Z,7.47
2022-10-25T04:42:40.440Z,8.52
2022-10-25T04:45:08.036Z,7.35
2022-10-25T04:47:35.607Z,7.72
2022-10-25T04:50:03.161Z,9.32
2022-10-25T04:52:31.050Z,8.05
2022-10-25T04:54:59.144Z,8.88
2022-10-25T04:57:27.464Z,9.32
2022-10-25T04:59:56.481Z,8.73
2022-10-25T05:02:24.640Z,9.55
2022-10-25T05:04:52.021Z,7.63
2022-10-25T05:07:20.508Z,8.85
2022-10-25T05:09:47.881Z,8.57
2022-10-25T05:12:15.769Z,8.18
2022-10-25T05:14:43.071Z,8.60
2022-10-25T05:17:10.436Z,7.30
2022-10-25T05:19:37.726Z,6.80
2022-10-25T05:22:05.199Z,7.15
2022-10-25T05:24:32.585Z,7.40
2022-10-25T05:26:59.975Z,8.20
2022-10-25T05:29:27.305Z,8.10
2022-10-25T05:31:57.119Z,8.77
2022-10-25T05:34:24.381Z,7.72
2022-10-25T05:36:52.057Z,6.85
2022-10-25T05:39:19.516Z,6.68
2022-10-25T05:41:47.126Z,8.02
2022-10-25T05:44:16.948Z,7.82
2022-10-25T05:46:45.051Z,8.90
2022-10-25T05:49:12.880Z,8.48
2022-10-25T05:51:40.179Z,7.47
2022-10-25T05:54:12.748Z,7.85
2022-10-25T05:56:40.950Z,7.43
2022-10-25T05:59:11.208Z,6.50
2022-10-25T06:01:44.092Z,7.15
2022-10-25T06:04:13.214Z,6.78
2022-10-25T06:06:41.709Z,6.10
2022-10-25T06:09:10.094Z,6.47
2022-10-25T06:11:38.267Z,6.22
2022-10-25T06:14:05.983Z,6.32
2022-10-25T06:16:33.667Z,7.40
2022-10-25T06:19:01.124Z,9.00
2022-10-25T06:21:29.904Z,8.27
2022-10-25T06:23:59.549Z,8.32
2022-10-25T06:26:29.711Z,8.65
2022-10-25T06:28:59.896Z,10.05
2022-10-25T06:31:28.548Z,10.30
2022-10-25T06:33:55.929Z,10.60
2022-10-25T06:36:25.318Z,10.30
2022-10-25T06:38:53.858Z,10.30
2022-10-25T06:41:28.008Z,8.90
2022-10-25T06:43:55.892Z,9.32
2022-10-25T06:46:26.161Z,8.25
2022-10-25T06:48:55.092Z,7.03
2022-10-25T06:51:24.508Z,7.38
2022-10-25T06:53:59.680Z,8.02
2022-10-25T06:56:28.416Z,7.30
2022-10-25T06:58:56.488Z,7.57
2022-10-25T07:01:25.708Z,7.95
2022-10-25T07:03:55.148Z,6.45
2022-10-25T07:06:28.362Z,7.03
2022-10-25T07:08:59.162Z,7.03
2022-10-25T07:11:28.624Z,6.82
2022-10-25T07:13:58.827Z,6.78
2022-10-25T07:16:27.581Z,7.40
2022-10-25T07:19:04.874Z,6.55
2022-10-25T07:21:33.469Z,6.97
2022-10-25T07:24:01.304Z,6.70
2022-10-25T07:26:34.168Z,7.75
2022-10-25T07:29:03.292Z,7.00
2022-10-25T07:31:41.163Z,6.60
2022-10-25T07:34:08.507Z,7.15
2022-10-25T07:36:35.965Z,7.18
2022-10-25T07:39:03.478Z,7.80
2022-10-25T07:41:30.898Z,7.80
2022-10-25T07:43:58.386Z,8.88
2022-10-25T07:46:25.910Z,7.82
2022-10-25T07:48:53.196Z,8.25
2022-10-25T07:51:20.925Z,8.00
2022-10-25T07:53:48.249Z,8.07
2022-10-25T07:56:22.178Z,8.93
2022-10-25T07:58:52.084Z,8.23
2022-10-25T08:01:22.705Z,8.18
2022-10-25T08:03:51.225Z,7.80
2022-10-25T08:06:18.930Z,8.43
2022-10-25T08:08:46.328Z,9.57
2022-10-25T08:11:13.659Z,9.20
2022-10-25T08:13:41.148Z,8.70
2022-10-25T08:16:09.377Z,8.50
2022-10-25T08:18:36.745Z,9.27
2022-10-25T08:21:04.826Z,10.00
2022-10-25T08:23:33.367Z,9.00
2022-10-25T08:38:23.524Z,13.03
2022-10-25T08:41:10.504Z,13.57
2022-10-25T08:44:15.381Z,15.43
2022-10-25T08:46:54.803Z,15.15
2022-10-25T08:49:34.402Z,14.43
2022-10-25T08:52:02.772Z,14.30
2022-10-25T08:54:41.623Z,14.60
2022-10-25T08:57:33.417Z,13.15
2022-10-25T09:00:12.859Z,12.25
2022-10-25T09:02:58.166Z,13.88
2022-10-25T09:05:40.742Z,13.90
2022-10-25T09:08:30.369Z,12.15
2022-10-25T09:11:03.303Z,12.10
2022-10-25T09:13:42.653Z,13.68
2022-10-25T09:16:25.666Z,12.48
2022-10-25T09:18:57.384Z,11.95
2022-10-25T09:21:40.425Z,12.55
2022-10-25T09:24:28.458Z,11.70
2022-10-25T09:27:16.229Z,11.30
2022-10-25T09:30:20.890Z,10.88
2022-10-25T09:32:51.477Z,11.23
2022-10-25T09:35:28.090Z,9.90
2022-10-25T09:38:11.972Z,9.73
2022-10-25T09:40:50.009Z,9.38
2022-10-25T09:43:23.406Z,9.07
2022-10-25T09:45:57.814Z,8.73
2022-10-25T09:48:44.244Z,12.73
2022-10-25T09:51:24.888Z,12.45
2022-10-25T09:53:53.589Z,13.52
2022-10-25T09:56:20.963Z,13.02
2022-10-25T09:58:49.350Z,14.65
2022-10-25T10:01:27.064Z,13.18
2022-10-25T10:04:03.783Z,12.52
2022-10-25T10:06:38.109Z,11.45
2022-10-25T10:09:13.877Z,11.23
2022-10-25T10:11:42.446Z,11.40
2022-10-25T10:14:27.933Z,10.77
2022-10-25T10:16:58.462Z,10.73
2022-10-25T10:19:30.127Z,11.23
2022-10-25T10:22:12.603Z,11.07
2022-10-25T10:24:46.918Z,11.02
2022-10-25T10:27:26.197Z,11.73
2022-10-25T10:29:58.798Z,11.52
2022-10-25T10:35:29.138Z,10.55
2022-10-25T10:38:20.775Z,11.98
2022-10-25T10:40:50.857Z,10.65
2022-10-25T10:43:45.290Z,9.63
2022-10-25T10:46:20.273Z,9.65
2022-10-25T10:48:54.346Z,9.63
2022-10-25T10:51:44.693Z,9.80
2022-10-25T10:54:15.323Z,9.75
2022-10-25T10:56:42.852Z,10.32
2022-10-25T10:59:52.643Z,10.15
2022-10-25T11:02:40.966Z,9.88
2022-10-25T11:05:31.658Z,10.07
2022-10-25T11:08:19.782Z,9.88
2022-10-25T11:10:47.207Z,9.05
2022-10-25T11:13:18.773Z,9.60
2022-10-25T11:15:48.932Z,9.77
2022-10-25T11:18:19.552Z,9.38
2022-10-25T11:20:59.908Z,8.65
2022-10-25T11:24:04.233Z,8.30
2022-10-25T11:26:57.207Z,8.65
2022-10-25T11:29:38.187Z,7.57
2022-10-25T11:32:29.840Z,8.45
2022-10-25T11:35:34.345Z,9.68
2022-10-25T11:38:36.535Z,10.00
2022-10-25T11:41:24.176Z,11.27
2022-10-25T11:44:03.741Z,12.07
2022-10-25T11:46:46.010Z,8.88
2022-10-25T11:49:19.035Z,8.05
2022-10-25T11:52:11.209Z,8.90
2022-10-25T11:55:06.185Z,8.68
2022-10-25T11:57:50.137Z,8.93
2022-10-25T12:00:20.091Z,8.50
2022-10-25T12:03:08.887Z,7.30
2022-10-25T12:05:51.915Z,7.93
2022-10-25T12:08:47.225Z,7.95
2022-10-25T12:11:21.015Z,7.03
2022-10-25T12:13:53.677Z,7.47
2022-10-25T12:16:23.673Z,8.02
2022-10-25T12:19:25.044Z,8.57
2022-10-25T12:22:01.763Z,8.63
2022-10-25T12:24:39.787Z,8.80
2022-10-25T12:27:09.514Z,9.80
2022-10-25T12:29:46.241Z,9.10
2022-10-25T12:32:28.387Z,8.88
2022-10-25T12:34:59.939Z,8.57
2022-10-25T12:37:38.517Z,9.45
2022-10-25T12:40:08.183Z,9.55
2022-10-25T12:42:48.669Z,8.18
2022-10-25T12:45:56.038Z,8.05
2022-10-25T12:49:04.242Z,7.50
2022-10-25T12:52:01.567Z,7.97
2022-10-25T12:54:53.865Z,9.57
2022-10-25T12:57:48.238Z,8.95
2022-10-25T13:03:35.860Z,9.10
2022-10-25T13:06:09.945Z,8.93
2022-10-25T13:08:40.261Z,9.25
2022-10-25T13:11:09.779Z,8.38
2022-10-25T13:13:47.286Z,8.55
2022-10-25T13:16:28.035Z,8.43
2022-10-25T13:19:16.486Z,8.10
2022-10-25T13:21:55.061Z,8.57
2022-10-25T13:24:45.052Z,9.18
2022-10-25T13:27:15.650Z,10.32
2022-10-25T13:30:03.319Z,9.57
2022-10-25T13:32:33.550Z,8.63
2022-10-25T13:35:04.031Z,9.68
2022-10-25T13:37:31.400Z,8.80
2022-10-25T13:40:00.040Z,9.35
2022-10-25T13:42:38.175Z,8.95
2022-10-25T13:45:05.471Z,9.07
2022-10-25T13:47:40.125Z,8.88
2022-10-25T13:50:44.763Z,8.63
2022-10-25T13:53:37.913Z,9.60
2022-10-25T13:56:07.095Z,10.00
2022-10-25T13:58:34.412Z,10.00
2022-10-25T14:01:17.437Z,9.98
2022-10-25T14:04:20.585Z,9.63
2022-10-25T14:06:49.849Z,9.80
2022-10-25T14:09:29.338Z,9.77
2022-10-25T14:12:14.626Z,10.52
2022-10-25T14:14:57.297Z,10.10
2022-10-25T14:17:43.155Z,11.18
2022-10-25T14:20:29.746Z,9.80
2022-10-25T14:23:03.598Z,9.30
2022-10-25T14:26:01.149Z,10.00
2022-10-25T14:28:30.930Z,10.05
2022-10-25T14:31:05.913Z,9.85
2022-10-25T14:33:48.314Z,10.30
2022-10-25T14:36:30.701Z,9.80
2022-10-25T14:39:16.430Z,9.70
2022-10-25T14:41:54.306Z,9.77
2022-10-25T14:44:28.900Z,10.18
2022-10-25T14:47:00.634Z,10.23
2022-10-25T14:49:28.228Z,9.85
2022-10-25T14:52:00.214Z,9.52
2022-10-25T14:54:34.115Z,9.82
2022-10-25T14:57:04.900Z,9.65
2022-10-25T14:59:48.685Z,10.07
2022-10-25T15:02:32.618Z,9.88
2022-10-25T15:05:01.585Z,11.38
2022-10-25T15:07:59.581Z,10.77
2022-10-25T15:10:42.023Z,11.00
2022-10-25T15:13:18.246Z,11.60
2022-10-25T15:15:47.613Z,11.98
2022-10-25T15:18:31.526Z,11.60
2022-10-25T15:21:18.058Z,13.25
2022-10-25T15:24:13.893Z,13.57
2022-10-25T15:27:28.085Z,13.88
2022-10-25T15:29:55.504Z,14.80
2022-10-25T15:32:27.861Z,14.43
2022-10-25T15:34:59.509Z,14.50
2022-10-25T15:37:28.602Z,14.05
2022-10-25T15:39:57.031Z,13.50
2022-10-25T15:42:27.555Z,14.80
2022-10-25T15:44:55.755Z,15.35
2022-10-25T15:47:34.967Z,14.68
2022-10-25T15:50:04.930Z,16.15
2022-10-25T15:52:32.294Z,16.38
2022-10-25T15:54:59.572Z,17.13
2022-10-25T15:57:27.768Z,18.90
2022-10-25T15:59:55.128Z,19.88
2022-10-25T16:02:28.783Z,19.23
2022-10-25T16:04:56.526Z,23.70
2022-10-25T16:07:24.025Z,25.40
2022-10-25T16:09:51.350Z,26.02
2022-10-25T16:12:30.171Z,26.02
2022-10-25T16:14:57.629Z,25.98
2022-10-25T16:17:24.938Z,26.75
2022-10-25T16:19:52.343Z,25.60
2022-10-25T16:22:19.804Z,26.23
2022-10-25T16:24:47.161Z,26.38
2022-10-25T16:27:15.880Z,22.65
2022-10-25T16:29:44.308Z,22.38
2022-10-25T16:32:11.541Z,19.83
2022-10-25T16:34:42.656Z,21.42
2022-10-25T16:37:11.871Z,18.92
2022-10-25T16:39:39.555Z,16.40
2022-10-25T16:42:29.185Z,18.00
2022-10-25T16:44:57.757Z,16.75
2022-10-25T16:47:26.685Z,16.70
2022-10-25T16:49:54.719Z,17.48
2022-10-25T16:52:22.623Z,17.88
2022-10-25T16:54:49.954Z,18.17
2022-10-25T16:57:17.471Z,17.65
2022-10-25T16:59:44.807Z,19.30
2022-10-25T17:02:24.267Z,18.58
2022-10-25T17:04:52.267Z,19.23
2022-10-25T17:07:20.244Z,18.35
2022-10-25T17:09:47.817Z,19.63
2022-10-25T17:12:15.205Z,18.80
2022-10-25T17:14:42.476Z,18.25
2022-10-25T17:17:09.906Z,18.67
2022-10-25T17:19:37.285Z,19.02
2022-10-25T17:22:04.940Z,20.50
2022-10-25T17:24:36.138Z,19.40
2022-10-25T17:27:07.638Z,21.02
2022-10-25T17:29:35.150Z,20.17
2022-10-25T17:32:02.478Z,21.42
2022-10-25T17:34:31.878Z,18.75
2022-10-25T17:37:02.427Z,17.17
2022-10-25T17:39:30.166Z,18.73
2022-10-25T17:41:57.444Z,19.13
2022-10-25T17:44:24.862Z,19.52
2022-10-25T17:46:52.501Z,20.83
2022-10-25T17:49:20.163Z,20.13
2022-10-25T17:51:48.051Z,20.55
2022-10-25T17:54:18.090Z,21.20
2022-10-25T17:56:46.620Z,21.40
2022-10-25T17:59:14.062Z,20.77
2022-10-25T18:01:42.270Z,22.45
2022-10-25T18:04:09.876Z,21.13
2022-10-25T18:06:37.210Z,22.17
2022-10-25T18:09:05.099Z,20.65
2022-10-25T18:11:32.534Z,20.42
2022-10-25T18:14:02.227Z,21.10
2022-10-25T18:16:31.405Z,19.88
2022-10-25T18:19:01.478Z,23.02
2022-10-25T18:21:29.381Z,22.02
2022-10-25T18:24:01.582Z,23.25
2022-10-25T18:26:29.811Z,21.20
2022-10-25T18:28:58.904Z,22.88
2022-10-25T18:31:27.539Z,23.02
2022-10-25T18:33:55.685Z,22.95
2022-10-25T18:36:23.065Z,22.20
2022-10-25T18:38:51.391Z,22.85
2022-10-25T18:41:25.465Z,24.90
2022-10-25T18:43:55.057Z,24.52
2022-10-25T18:46:23.801Z,25.65
2022-10-25T18:48:54.816Z,26.55
2022-10-25T18:51:23.881Z,23.25
2022-10-25T18:53:58.200Z,23.73
2022-10-25T18:56:26.233Z,24.40
2022-10-25T18:58:55.297Z,23.70
2022-10-25T19:01:29.071Z,23.20
2022-10-25T19:03:58.233Z,21.70
2022-10-25T19:06:26.268Z,22.52
2022-10-25T19:08:54.218Z,22.17
2022-10-25T19:11:21.560Z,20.63
2022-10-25T19:13:53.205Z,21.60
2022-10-25T19:16:21.360Z,18.35
2022-10-25T19:18:49.115Z,17.50
2022-10-25T19:21:18.661Z,16.70
2022-10-25T19:23:47.179Z,16.77
2022-10-25T19:26:23.109Z,17.60
2022-10-25T19:28:57.525Z,16.52
2022-10-25T19:31:25.594Z,17.42
2022-10-25T19:33:53.682Z,16.70
2022-10-25T19:36:23.127Z,17.70
2022-10-25T19:38:50.524Z,18.25
2022-10-25T19:41:20.825Z,15.80
2022-10-25T19:43:48.362Z,16.00
2022-10-25T19:46:16.089Z,14.98
2022-10-25T19:48:43.441Z,16.05
2022-10-25T19:51:14.598Z,14.70
2022-10-25T19:53:42.142Z,14.07
2022-10-25T19:56:22.398Z,13.68
2022-10-25T19:58:50.783Z,14.63
2022-10-25T20:01:24.567Z,14.65
2022-10-25T20:03:54.902Z,14.85
2022-10-25T20:06:25.317Z,14.38
2022-10-25T20:08:54.021Z,14.75
2022-10-25T20:11:22.943Z,15.07
2022-10-25T20:13:54.747Z,15.32
2022-10-25T20:16:23.225Z,15.18
2022-10-25T20:18:50.975Z,15.00
2022-10-25T20:21:21.667Z,15.40
2022-10-25T20:23:55.541Z,14.25
2022-10-25T20:26:26.272Z,15.65
2022-10-25T20:28:56.654Z,14.90
2022-10-25T20:31:25.611Z,14.65
2022-10-25T20:33:53.673Z,11.65
2022-10-25T20:36:21.288Z,12.15
2022-10-25T20:38:48.913Z,13.68
2022-10-25T20:41:19.717Z,13.23
2022-10-25T20:43:49.520Z,13.20
2022-10-25T20:46:18.044Z,12.85
2022-10-25T20:48:46.706Z,12.70
2022-10-25T20:51:15.669Z,13.88
2022-10-25T20:53:47.047Z,12.20
2022-10-25T20:56:15.382Z,12.40
2022-10-25T20:58:43.279Z,13.02
2022-10-25T21:01:11.242Z,13.57
2022-10-25T21:03:39.414Z,12.25
2022-10-25T21:06:09.208Z,12.20
2022-10-25T21:08:37.778Z,13.18
2022-10-25T21:11:07.803Z,13.20
2022-10-25T21:13:36.938Z,12.52
2022-10-25T21:16:15.558Z,14.10
2022-10-25T21:18:43.917Z,14.82
2022-10-25T21:21:18.202Z,15.10
2022-10-25T21:23:49.280Z,14.07
2022-10-25T21:26:16.866Z,13.32
2022-10-25T21:28:44.282Z,13.20
2022-10-25T21:31:15.132Z,13.88
2022-10-25T21:33:49.992Z,14.55
2022-10-25T21:36:20.021Z,14.55
2022-10-25T21:38:47.556Z,15.27
2022-10-25T21:41:17.551Z,14.80
2022-10-25T21:43:46.981Z,14.65
2022-10-25T21:46:16.329Z,14.10
2022-10-25T21:48:44.151Z,14.38
2022-10-25T21:51:11.398Z,11.10
2022-10-25T21:53:38.994Z,11.70
2022-10-25T21:56:14.756Z,11.50
2022-10-25T21:58:43.821Z,10.68
2022-10-25T22:01:19.468Z,9.55
2022-10-25T22:03:47.221Z,9.73
2022-10-25T22:06:17.300Z,8.80
2022-10-25T22:08:45.131Z,8.73
2022-10-25T22:11:15.539Z,8.85
2022-10-25T22:13:43.674Z,10.13
2022-10-25T22:16:17.024Z,9.48
2022-10-25T22:18:49.648Z,9.93
2022-10-25T22:21:17.160Z,9.30
2022-10-25T22:23:44.591Z,8.63
2022-10-25T22:26:13.819Z,9.07
2022-10-25T22:28:43.226Z,8.98
2022-10-25T22:31:17.214Z,9.50
2022-10-25T22:33:45.898Z,8.93
2022-10-25T22:36:18.589Z,8.88
2022-10-25T22:38:46.914Z,8.43
2022-10-25T22:41:19.032Z,8.15
2022-10-25T22:43:47.752Z,9.00
2022-10-25T22:46:25.524Z,8.90
2022-10-25T22:48:54.447Z,9.00
2022-10-25T22:51:22.739Z,8.88
2022-10-25T22:53:50.101Z,9.10
2022-10-25T22:56:19.739Z,9.13
2022-10-25T22:58:52.456Z,10.10
2022-10-25T23:01:22.247Z,9.43
2022-10-25T23:03:55.204Z,8.27
2022-10-25T23:06:25.819Z,8.73
2022-10-25T23:08:55.099Z,8.73
2022-10-25T23:11:25.156Z,9.20
2022-10-25T23:13:53.033Z,8.68
2022-10-25T23:16:20.961Z,9.52
2022-10-25T23:18:48.558Z,9.32
2022-10-25T23:21:22.144Z,9.85
2022-10-25T23:23:50.442Z,9.88
2022-10-25T23:26:32.311Z,9.77
2022-10-25T23:29:00.987Z,9.18
2022-10-25T23:31:29.760Z,9.30
2022-10-25T23:33:59.743Z,9.68
2022-10-25T23:36:29.623Z,9.40
2022-10-25T23:38:58.377Z,7.72
2022-10-25T23:41:25.664Z,7.78
2022-10-25T23:43:53.002Z,8.70
2022-10-25T23:46:20.369Z,7.55
2022-10-25T23:48:48.275Z,8.35
2022-10-25T23:51:17.688Z,8.02
2022-10-25T23:53:45.884Z,8.20
2022-10-25T23:56:16.497Z,10.02
2022-10-25T23:58:43.876Z,10.73
